sensor_id;sensor_type;location;lat;lon;timestamp;P1;durP1;ratioP1;P2;durP2;ratioP2
5845;SDS011;2949;50.778;7.094;2023-02-15T00:01:38;51.40;;;21.30;;
5845;SDS011;2949;50.778;7.094;2023-02-15T00:04:04;45.53;;;20.93;;
5845;SDS011;2949;50.778;7.094;2023-02-15T00:06:31;39.83;;;18.97;;
5845;SDS011;2949;50.778;7.094;2023-02-15T00:08:58;48.57;;;22.30;;
5845;SDS011;2949;50.778;7.094;2023-02-15T00:11:24;57.77;;;21.80;;
5845;SDS011;2949;50.778;7.094;2023-02-15T00:14:06;49.97;;;21.07;;
5845;SDS011;2949;50.778;7.094;2023-02-15T00:16:33;46.70;;;19.40;;
5845;SDS011;2949;50.778;7.094;2023-02-15T00:18:59;41.57;;;18.70;;
5845;SDS011;2949;50.778;7.094;2023-02-15T00:21:26;51.93;;;19.93;;
5845;SDS011;2949;50.778;7.094;2023-02-15T00:23:53;38.50;;;17.30;;
5845;SDS011;2949;50.778;7.094;2023-02-15T00:26:19;48.13;;;20.40;;
5845;SDS011;2949;50.778;7.094;2023-02-15T00:28:44;44.77;;;20.57;;
5845;SDS011;2949;50.778;7.094;2023-02-15T00:31:10;57.27;;;22.00;;
5845;SDS011;2949;50.778;7.094;2023-02-15T00:33:37;52.13;;;22.40;;
5845;SDS011;2949;50.778;7.094;2023-02-15T00:36:05;52.47;;;21.43;;
5845;SDS011;2949;50.778;7.094;2023-02-15T00:38:32;64.47;;;22.83;;
5845;SDS011;2949;50.778;7.094;2023-02-15T00:40:59;47.80;;;20.63;;
5845;SDS011;2949;50.778;7.094;2023-02-15T00:43:28;45.43;;;21.47;;
5845;SDS011;2949;50.778;7.094;2023-02-15T00:45:54;49.00;;;21.43;;
5845;SDS011;2949;50.778;7.094;2023-02-15T00:48:19;53.33;;;21.60;;
5845;SDS011;2949;50.778;7.094;2023-02-15T00:50:49;46.17;;;20.23;;
5845;SDS011;2949;50.778;7.094;2023-02-15T00:53:17;42.33;;;18.07;;
5845;SDS011;2949;50.778;7.094;2023-02-15T00:55:42;44.50;;;19.63;;
5845;SDS011;2949;50.778;7.094;2023-02-15T00:58:09;47.03;;;20.30;;
5845;SDS011;2949;50.778;7.094;2023-02-15T01:00:35;51.17;;;20.50;;
5845;SDS011;2949;50.778;7.094;2023-02-15T01:03:02;50.83;;;20.10;;
5845;SDS011;2949;50.778;7.094;2023-02-15T01:05:27;46.47;;;21.90;;
5845;SDS011;2949;50.778;7.094;2023-02-15T01:07:54;45.33;;;17.40;;
5845;SDS011;2949;50.778;7.094;2023-02-15T01:10:20;51.40;;;20.70;;
5845;SDS011;2949;50.778;7.094;2023-02-15T01:12:46;50.27;;;20.63;;
5845;SDS011;2949;50.778;7.094;2023-02-15T01:15:12;44.73;;;19.83;;
5845;SDS011;2949;50.778;7.094;2023-02-15T01:17:37;44.93;;;20.43;;
5845;SDS011;2949;50.778;7.094;2023-02-15T01:20:03;49.80;;;20.70;;
5845;SDS011;2949;50.778;7.094;2023-02-15T01:22:29;49.40;;;21.37;;
5845;SDS011;2949;50.778;7.094;2023-02-15T01:24:54;46.67;;;20.87;;
5845;SDS011;2949;50.778;7.094;2023-02-15T01:27:20;58.60;;;22.27;;
5845;SDS011;2949;50.778;7.094;2023-02-15T01:29:45;46.27;;;20.43;;
5845;SDS011;2949;50.778;7.094;2023-02-15T01:32:12;44.30;;;20.33;;
5845;SDS011;2949;50.778;7.094;2023-02-15T01:34:38;44.83;;;18.43;;
5845;SDS011;2949;50.778;7.094;2023-02-15T01:37:03;50.33;;;20.47;;
5845;SDS011;2949;50.778;7.094;2023-02-15T01:39:29;43.70;;;20.17;;
5845;SDS011;2949;50.778;7.094;2023-02-15T01:41:54;54.40;;;19.90;;
5845;SDS011;2949;50.778;7.094;2023-02-15T01:45:05;46.20;;;19.33;;
5845;SDS011;2949;50.778;7.094;2023-02-15T01:47:32;41.23;;;18.87;;
5845;SDS011;2949;50.778;7.094;2023-02-15T01:50:04;48.40;;;21.17;;
5845;SDS011;2949;50.778;7.094;2023-02-15T01:52:49;46.17;;;20.60;;
5845;SDS011;2949;50.778;7.094;2023-02-15T01:55:23;44.77;;;18.80;;
5845;SDS011;2949;50.778;7.094;2023-02-15T01:57:51;51.20;;;21.07;;
5845;SDS011;2949;50.778;7.094;2023-02-15T02:00:17;49.37;;;21.07;;
5845;SDS011;2949;50.778;7.094;2023-02-15T02:02:43;41.00;;;17.47;;
5845;SDS011;2949;50.778;7.094;2023-02-15T02:05:11;45.10;;;20.90;;
5845;SDS011;2949;50.778;7.094;2023-02-15T02:07:38;50.97;;;20.57;;
5845;SDS011;2949;50.778;7.094;2023-02-15T02:10:07;56.07;;;21.40;;
5845;SDS011;2949;50.778;7.094;2023-02-15T02:12:34;53.80;;;22.40;;
5845;SDS011;2949;50.778;7.094;2023-02-15T02:15:02;51.87;;;20.07;;
5845;SDS011;2949;50.778;7.094;2023-02-15T02:31:39;55.03;;;21.60;;
5845;SDS011;2949;50.778;7.094;2023-02-15T02:34:32;52.73;;;22.30;;
5845;SDS011;2949;50.778;7.094;2023-02-15T02:37:29;57.87;;;20.50;;
5845;SDS011;2949;50.778;7.094;2023-02-15T02:42:31;53.47;;;22.00;;
5845;SDS011;2949;50.778;7.094;2023-02-15T02:47:37;53.93;;;20.70;;
5845;SDS011;2949;50.778;7.094;2023-02-15T02:50:09;50.80;;;19.47;;
5845;SDS011;2949;50.778;7.094;2023-02-15T02:55:13;52.23;;;21.13;;
5845;SDS011;2949;50.778;7.094;2023-02-15T02:58:04;48.93;;;19.40;;
5845;SDS011;2949;50.778;7.094;2023-02-15T03:00:32;55.20;;;22.30;;
5845;SDS011;2949;50.778;7.094;2023-02-15T03:03:06;63.33;;;23.47;;
5845;SDS011;2949;50.778;7.094;2023-02-15T03:05:39;54.37;;;22.07;;
5845;SDS011;2949;50.778;7.094;2023-02-15T03:08:09;55.67;;;22.60;;
5845;SDS011;2949;50.778;7.094;2023-02-15T03:10:37;53.77;;;20.70;;
5845;SDS011;2949;50.778;7.094;2023-02-15T03:13:04;54.93;;;22.33;;
5845;SDS011;2949;50.778;7.094;2023-02-15T03:15:31;47.93;;;19.57;;
5845;SDS011;2949;50.778;7.094;2023-02-15T03:18:21;53.40;;;21.67;;
5845;SDS011;2949;50.778;7.094;2023-02-15T03:20:49;58.27;;;21.40;;
5845;SDS011;2949;50.778;7.094;2023-02-15T03:23:18;54.13;;;20.53;;
5845;SDS011;2949;50.778;7.094;2023-02-15T03:25:49;30.17;;;12.97;;
5845;SDS011;2949;50.778;7.094;2023-02-15T03:28:22;52.33;;;21.27;;
5845;SDS011;2949;50.778;7.094;2023-02-15T03:30:54;61.07;;;21.33;;
5845;SDS011;2949;50.778;7.094;2023-02-15T03:33:23;61.63;;;21.63;;
5845;SDS011;2949;50.778;7.094;2023-02-15T03:35:53;56.70;;;22.40;;
5845;SDS011;2949;50.778;7.094;2023-02-15T03:38:24;58.33;;;22.90;;
5845;SDS011;2949;50.778;7.094;2023-02-15T03:40:56;54.87;;;21.47;;
5845;SDS011;2949;50.778;7.094;2023-02-15T03:43:42;56.83;;;22.80;;
5845;SDS011;2949;50.778;7.094;2023-02-15T03:46:23;54.83;;;21.73;;
5845;SDS011;2949;50.778;7.094;2023-02-15T03:49:03;34.60;;;15.23;;
5845;SDS011;2949;50.778;7.094;2023-02-15T03:52:00;43.07;;;19.20;;
5845;SDS011;2949;50.778;7.094;2023-02-15T03:54:30;52.73;;;20.87;;
5845;SDS011;2949;50.778;7.094;2023-02-15T03:57:12;47.50;;;20.67;;
5845;SDS011;2949;50.778;7.094;2023-02-15T03:59:57;47.27;;;20.53;;
5845;SDS011;2949;50.778;7.094;2023-02-15T04:03:30;48.83;;;19.30;;
5845;SDS011;2949;50.778;7.094;2023-02-15T04:05:40;47.97;;;19.57;;
5845;SDS011;2949;50.778;7.094;2023-02-15T04:08:08;49.93;;;21.63;;
5845;SDS011;2949;50.778;7.094;2023-02-15T04:10:34;47.60;;;17.33;;
5845;SDS011;2949;50.778;7.094;2023-02-15T04:13:20;46.47;;;20.17;;
5845;SDS011;2949;50.778;7.094;2023-02-15T04:15:47;55.57;;;20.30;;
5845;SDS011;2949;50.778;7.094;2023-02-15T04:18:29;55.90;;;20.40;;
5845;SDS011;2949;50.778;7.094;2023-02-15T04:21:13;49.80;;;19.80;;
5845;SDS011;2949;50.778;7.094;2023-02-15T04:23:57;56.43;;;22.13;;
5845;SDS011;2949;50.778;7.094;2023-02-15T04:26:41;43.93;;;18.17;;
5845;SDS011;2949;50.778;7.094;2023-02-15T04:29:06;48.30;;;21.60;;
5845;SDS011;2949;50.778;7.094;2023-02-15T04:31:32;49.30;;;20.23;;
5845;SDS011;2949;50.778;7.094;2023-02-15T04:33:58;45.27;;;16.77;;
5845;SDS011;2949;50.778;7.094;2023-02-15T04:36:23;56.67;;;19.67;;
5845;SDS011;2949;50.778;7.094;2023-02-15T04:38:48;42.67;;;19.47;;
5845;SDS011;2949;50.778;7.094;2023-02-15T04:41:14;37.63;;;16.43;;
5845;SDS011;2949;50.778;7.094;2023-02-15T04:43:39;44.60;;;17.80;;
5845;SDS011;2949;50.778;7.094;2023-02-15T04:46:05;38.10;;;15.00;;
5845;SDS011;2949;50.778;7.094;2023-02-15T04:48:30;44.53;;;15.37;;
5845;SDS011;2949;50.778;7.094;2023-02-15T04:50:56;42.17;;;16.57;;
5845;SDS011;2949;50.778;7.094;2023-02-15T04:53:21;51.23;;;20.93;;
5845;SDS011;2949;50.778;7.094;2023-02-15T04:55:47;42.77;;;18.63;;
5845;SDS011;2949;50.778;7.094;2023-02-15T04:58:13;40.13;;;17.90;;
5845;SDS011;2949;50.778;7.094;2023-02-15T05:00:38;43.30;;;17.87;;
5845;SDS011;2949;50.778;7.094;2023-02-15T05:03:04;42.83;;;18.57;;
5845;SDS011;2949;50.778;7.094;2023-02-15T05:05:29;47.40;;;19.40;;
5845;SDS011;2949;50.778;7.094;2023-02-15T05:07:55;43.87;;;17.07;;
5845;SDS011;2949;50.778;7.094;2023-02-15T05:10:20;38.97;;;15.87;;
5845;SDS011;2949;50.778;7.094;2023-02-15T05:12:46;32.83;;;14.60;;
5845;SDS011;2949;50.778;7.094;2023-02-15T05:15:11;54.30;;;17.07;;
5845;SDS011;2949;50.778;7.094;2023-02-15T05:17:37;48.00;;;18.70;;
5845;SDS011;2949;50.778;7.094;2023-02-15T05:20:03;40.07;;;16.57;;
5845;SDS011;2949;50.778;7.094;2023-02-15T05:22:29;42.23;;;17.97;;
5845;SDS011;2949;50.778;7.094;2023-02-15T05:24:55;34.57;;;11.97;;
5845;SDS011;2949;50.778;7.094;2023-02-15T05:27:39;40.97;;;16.50;;
5845;SDS011;2949;50.778;7.094;2023-02-15T05:30:23;42.50;;;15.53;;
5845;SDS011;2949;50.778;7.094;2023-02-15T05:32:49;48.37;;;19.13;;
5845;SDS011;2949;50.778;7.094;2023-02-15T05:35:14;46.83;;;17.67;;
5845;SDS011;2949;50.778;7.094;2023-02-15T05:37:41;43.37;;;18.60;;
5845;SDS011;2949;50.778;7.094;2023-02-15T05:40:06;36.37;;;16.60;;
5845;SDS011;2949;50.778;7.094;2023-02-15T05:42:33;47.67;;;18.10;;
5845;SDS011;2949;50.778;7.094;2023-02-15T05:44:58;39.83;;;15.47;;
5845;SDS011;2949;50.778;7.094;2023-02-15T05:47:24;35.50;;;15.90;;
5845;SDS011;2949;50.778;7.094;2023-02-15T05:49:49;37.73;;;17.87;;
5845;SDS011;2949;50.778;7.094;2023-02-15T05:52:15;41.27;;;16.57;;
5845;SDS011;2949;50.778;7.094;2023-02-15T05:54:40;34.53;;;16.27;;
5845;SDS011;2949;50.778;7.094;2023-02-15T05:57:06;44.00;;;17.40;;
5845;SDS011;2949;50.778;7.094;2023-02-15T05:59:32;35.70;;;14.63;;
5845;SDS011;2949;50.778;7.094;2023-02-15T06:01:57;39.90;;;15.33;;
5845;SDS011;2949;50.778;7.094;2023-02-15T06:04:23;39.33;;;17.03;;
5845;SDS011;2949;50.778;7.094;2023-02-15T06:06:48;29.10;;;12.47;;
5845;SDS011;2949;50.778;7.094;2023-02-15T06:09:14;42.37;;;16.90;;
5845;SDS011;2949;50.778;7.094;2023-02-15T06:11:40;40.40;;;15.73;;
5845;SDS011;2949;50.778;7.094;2023-02-15T06:14:05;50.10;;;18.30;;
5845;SDS011;2949;50.778;7.094;2023-02-15T06:16:31;38.57;;;15.77;;
5845;SDS011;2949;50.778;7.094;2023-02-15T06:18:56;36.13;;;16.17;;
5845;SDS011;2949;50.778;7.094;2023-02-15T06:21:23;34.53;;;14.90;;
5845;SDS011;2949;50.778;7.094;2023-02-15T06:23:49;38.07;;;15.80;;
5845;SDS011;2949;50.778;7.094;2023-02-15T06:26:14;37.30;;;16.27;;
5845;SDS011;2949;50.778;7.094;2023-02-15T06:28:40;36.30;;;15.40;;
5845;SDS011;2949;50.778;7.094;2023-02-15T06:31:06;24.47;;;11.27;;
5845;SDS011;2949;50.778;7.094;2023-02-15T06:33:31;35.10;;;15.30;;
5845;SDS011;2949;50.778;7.094;2023-02-15T06:35:58;34.50;;;16.40;;
5845;SDS011;2949;50.778;7.094;2023-02-15T06:38:24;28.20;;;13.80;;
5845;SDS011;2949;50.778;7.094;2023-02-15T06:40:50;31.33;;;15.43;;
5845;SDS011;2949;50.778;7.094;2023-02-15T06:43:15;41.17;;;16.37;;
5845;SDS011;2949;50.778;7.094;2023-02-15T06:45:41;33.93;;;15.40;;
5845;SDS011;2949;50.778;7.094;2023-02-15T06:48:06;36.20;;;14.13;;
5845;SDS011;2949;50.778;7.094;2023-02-15T06:50:33;37.33;;;14.43;;
5845;SDS011;2949;50.778;7.094;2023-02-15T06:52:59;33.03;;;15.83;;
5845;SDS011;2949;50.778;7.094;2023-02-15T06:55:24;24.03;;;11.20;;
5845;SDS011;2949;50.778;7.094;2023-02-15T06:57:50;23.60;;;10.60;;
5845;SDS011;2949;50.778;7.094;2023-02-15T07:00:16;30.30;;;15.17;;
5845;SDS011;2949;50.778;7.094;2023-02-15T07:02:42;24.20;;;12.00;;
5845;SDS011;2949;50.778;7.094;2023-02-15T07:05:08;30.43;;;14.50;;
5845;SDS011;2949;50.778;7.094;2023-02-15T07:07:34;31.17;;;11.97;;
5845;SDS011;2949;50.778;7.094;2023-02-15T07:09:59;27.03;;;13.33;;
5845;SDS011;2949;50.778;7.094;2023-02-15T07:12:26;33.63;;;13.13;;
5845;SDS011;2949;50.778;7.094;2023-02-15T07:15:07;33.33;;;16.00;;
5845;SDS011;2949;50.778;7.094;2023-02-15T07:17:34;24.37;;;9.33;;
5845;SDS011;2949;50.778;7.094;2023-02-15T07:20:00;36.93;;;15.23;;
5845;SDS011;2949;50.778;7.094;2023-02-15T07:22:25;31.50;;;14.40;;
5845;SDS011;2949;50.778;7.094;2023-02-15T07:24:51;21.33;;;9.70;;
5845;SDS011;2949;50.778;7.094;2023-02-15T07:27:19;21.60;;;11.47;;
5845;SDS011;2949;50.778;7.094;2023-02-15T07:29:45;29.40;;;13.87;;
5845;SDS011;2949;50.778;7.094;2023-02-15T07:32:10;31.60;;;16.00;;
5845;SDS011;2949;50.778;7.094;2023-02-15T07:34:36;37.40;;;13.30;;
5845;SDS011;2949;50.778;7.094;2023-02-15T07:37:01;27.43;;;13.97;;
5845;SDS011;2949;50.778;7.094;2023-02-15T07:39:27;24.67;;;12.43;;
5845;SDS011;2949;50.778;7.094;2023-02-15T07:41:52;23.53;;;12.03;;
5845;SDS011;2949;50.778;7.094;2023-02-15T07:44:18;25.63;;;12.97;;
5845;SDS011;2949;50.778;7.094;2023-02-15T07:46:44;21.13;;;10.80;;
5845;SDS011;2949;50.778;7.094;2023-02-15T07:49:09;21.90;;;11.57;;
5845;SDS011;2949;50.778;7.094;2023-02-15T07:51:35;22.90;;;11.17;;
5845;SDS011;2949;50.778;7.094;2023-02-15T07:54:00;18.33;;;10.43;;
5845;SDS011;2949;50.778;7.094;2023-02-15T07:56:26;22.17;;;11.97;;
5845;SDS011;2949;50.778;7.094;2023-02-15T07:58:51;20.07;;;9.67;;
5845;SDS011;2949;50.778;7.094;2023-02-15T08:01:18;14.43;;;8.00;;
5845;SDS011;2949;50.778;7.094;2023-02-15T08:03:45;20.80;;;10.20;;
5845;SDS011;2949;50.778;7.094;2023-02-15T08:06:11;20.30;;;10.53;;
5845;SDS011;2949;50.778;7.094;2023-02-15T08:08:38;19.67;;;10.50;;
5845;SDS011;2949;50.778;7.094;2023-02-15T08:13:51;20.77;;;10.20;;
5845;SDS011;2949;50.778;7.094;2023-02-15T08:18:54;18.00;;;8.17;;
5845;SDS011;2949;50.778;7.094;2023-02-15T08:21:21;19.67;;;10.50;;
5845;SDS011;2949;50.778;7.094;2023-02-15T08:23:47;16.97;;;8.90;;
5845;SDS011;2949;50.778;7.094;2023-02-15T08:26:13;19.07;;;10.20;;
5845;SDS011;2949;50.778;7.094;2023-02-15T08:28:40;18.80;;;9.20;;
5845;SDS011;2949;50.778;7.094;2023-02-15T08:31:10;18.17;;;9.87;;
5845;SDS011;2949;50.778;7.094;2023-02-15T08:33:37;22.47;;;10.70;;
5845;SDS011;2949;50.778;7.094;2023-02-15T08:38:31;20.63;;;10.90;;
5845;SDS011;2949;50.778;7.094;2023-02-15T08:40:57;13.50;;;8.40;;
5845;SDS011;2949;50.778;7.094;2023-02-15T08:43:23;18.10;;;8.20;;
5845;SDS011;2949;50.778;7.094;2023-02-15T08:45:48;19.20;;;10.30;;
5845;SDS011;2949;50.778;7.094;2023-02-15T08:48:14;16.77;;;9.83;;
5845;SDS011;2949;50.778;7.094;2023-02-15T08:50:40;16.40;;;9.40;;
5845;SDS011;2949;50.778;7.094;2023-02-15T08:53:06;16.37;;;9.40;;
5845;SDS011;2949;50.778;7.094;2023-02-15T08:55:31;17.10;;;9.10;;
5845;SDS011;2949;50.778;7.094;2023-02-15T08:57:57;19.87;;;10.10;;
5845;SDS011;2949;50.778;7.094;2023-02-15T09:00:22;20.60;;;9.57;;
5845;SDS011;2949;50.778;7.094;2023-02-15T09:02:48;16.67;;;9.50;;
5845;SDS011;2949;50.778;7.094;2023-02-15T09:05:14;18.73;;;9.13;;
5845;SDS011;2949;50.778;7.094;2023-02-15T09:07:39;20.70;;;9.40;;
5845;SDS011;2949;50.778;7.094;2023-02-15T09:10:05;19.17;;;8.37;;
5845;SDS011;2949;50.778;7.094;2023-02-15T09:12:31;15.10;;;8.00;;
5845;SDS011;2949;50.778;7.094;2023-02-15T09:14:57;13.97;;;8.00;;
5845;SDS011;2949;50.778;7.094;2023-02-15T09:17:22;15.23;;;8.87;;
5845;SDS011;2949;50.778;7.094;2023-02-15T09:19:48;14.70;;;9.23;;
5845;SDS011;2949;50.778;7.094;2023-02-15T09:22:13;14.60;;;8.60;;
5845;SDS011;2949;50.778;7.094;2023-02-15T09:24:39;16.00;;;8.60;;
5845;SDS011;2949;50.778;7.094;2023-02-15T09:27:04;17.30;;;8.50;;
5845;SDS011;2949;50.778;7.094;2023-02-15T09:29:30;16.53;;;8.93;;
5845;SDS011;2949;50.778;7.094;2023-02-15T09:31:55;16.37;;;9.53;;
5845;SDS011;2949;50.778;7.094;2023-02-15T09:34:21;20.33;;;10.60;;
5845;SDS011;2949;50.778;7.094;2023-02-15T09:36:47;16.00;;;8.77;;
5845;SDS011;2949;50.778;7.094;2023-02-15T09:39:21;18.47;;;9.70;;
5845;SDS011;2949;50.778;7.094;2023-02-15T09:44:20;14.60;;;8.30;;
5845;SDS011;2949;50.778;7.094;2023-02-15T09:46:55;13.40;;;7.63;;
5845;SDS011;2949;50.778;7.094;2023-02-15T09:49:26;21.53;;;9.73;;
5845;SDS011;2949;50.778;7.094;2023-02-15T09:55:11;15.80;;;8.43;;
5845;SDS011;2949;50.778;7.094;2023-02-15T09:57:52;13.97;;;8.10;;
5845;SDS011;2949;50.778;7.094;2023-02-15T10:00:53;16.10;;;9.60;;
5845;SDS011;2949;50.778;7.094;2023-02-15T10:05:58;17.80;;;9.77;;
5845;SDS011;2949;50.778;7.094;2023-02-15T10:11:16;21.40;;;8.10;;
5845;SDS011;2949;50.778;7.094;2023-02-15T10:17:03;16.33;;;8.73;;
5845;SDS011;2949;50.778;7.094;2023-02-15T10:19:55;16.20;;;9.10;;
5845;SDS011;2949;50.778;7.094;2023-02-15T10:22:43;16.10;;;9.43;;
5845;SDS011;2949;50.778;7.094;2023-02-15T10:27:55;12.93;;;7.93;;
5845;SDS011;2949;50.778;7.094;2023-02-15T10:33:10;15.97;;;10.00;;
5845;SDS011;2949;50.778;7.094;2023-02-15T10:44:34;18.40;;;10.30;;
5845;SDS011;2949;50.778;7.094;2023-02-15T10:53:24;17.50;;;9.57;;
5845;SDS011;2949;50.778;7.094;2023-02-15T11:06:56;17.33;;;9.77;;
5845;SDS011;2949;50.778;7.094;2023-02-15T11:09:25;15.27;;;9.03;;
5845;SDS011;2949;50.778;7.094;2023-02-15T11:12:01;20.23;;;10.33;;
5845;SDS011;2949;50.778;7.094;2023-02-15T11:14:32;15.27;;;9.30;;
5845;SDS011;2949;50.778;7.094;2023-02-15T11:17:10;19.90;;;9.10;;
5845;SDS011;2949;50.778;7.094;2023-02-15T11:22:30;15.57;;;9.47;;
5845;SDS011;2949;50.778;7.094;2023-02-15T11:24:58;21.03;;;10.40;;
5845;SDS011;2949;50.778;7.094;2023-02-15T11:27:25;15.80;;;9.80;;
5845;SDS011;2949;50.778;7.094;2023-02-15T11:30:10;19.00;;;10.20;;
5845;SDS011;2949;50.778;7.094;2023-02-15T11:32:45;18.87;;;10.83;;
5845;SDS011;2949;50.778;7.094;2023-02-15T11:35:32;18.07;;;10.40;;
5845;SDS011;2949;50.778;7.094;2023-02-15T11:38:06;21.20;;;11.57;;
5845;SDS011;2949;50.778;7.094;2023-02-15T11:40:49;21.10;;;11.80;;
5845;SDS011;2949;50.778;7.094;2023-02-15T11:43:33;18.27;;;11.27;;
5845;SDS011;2949;50.778;7.094;2023-02-15T11:46:14;28.13;;;12.00;;
5845;SDS011;2949;50.778;7.094;2023-02-15T11:48:40;19.87;;;11.57;;
5845;SDS011;2949;50.778;7.094;2023-02-15T11:51:14;21.20;;;11.90;;
5845;SDS011;2949;50.778;7.094;2023-02-15T11:53:43;18.83;;;11.20;;
5845;SDS011;2949;50.778;7.094;2023-02-15T11:56:14;15.80;;;10.07;;
5845;SDS011;2949;50.778;7.094;2023-02-15T11:58:48;21.10;;;10.60;;
5845;SDS011;2949;50.778;7.094;2023-02-15T12:04:29;16.77;;;9.50;;
5845;SDS011;2949;50.778;7.094;2023-02-15T12:07:01;14.93;;;9.27;;
5845;SDS011;2949;50.778;7.094;2023-02-15T12:09:40;20.03;;;10.20;;
5845;SDS011;2949;50.778;7.094;2023-02-15T12:12:27;17.63;;;11.33;;
5845;SDS011;2949;50.778;7.094;2023-02-15T12:14:55;20.50;;;10.47;;
5845;SDS011;2949;50.778;7.094;2023-02-15T12:17:29;19.00;;;10.07;;
5845;SDS011;2949;50.778;7.094;2023-02-15T12:19:59;14.93;;;9.87;;
5845;SDS011;2949;50.778;7.094;2023-02-15T12:22:46;15.70;;;9.60;;
5845;SDS011;2949;50.778;7.094;2023-02-15T12:25:58;16.70;;;8.90;;
5845;SDS011;2949;50.778;7.094;2023-02-15T12:28:52;13.37;;;9.23;;
5845;SDS011;2949;50.778;7.094;2023-02-15T12:31:00;18.27;;;11.00;;
5845;SDS011;2949;50.778;7.094;2023-02-15T12:36:39;18.80;;;11.00;;
5845;SDS011;2949;50.778;7.094;2023-02-15T12:42:01;21.10;;;10.10;;
5845;SDS011;2949;50.778;7.094;2023-02-15T12:44:39;18.70;;;9.60;;
5845;SDS011;2949;50.778;7.094;2023-02-15T12:47:22;17.37;;;9.27;;
5845;SDS011;2949;50.778;7.094;2023-02-15T12:50:03;15.30;;;9.33;;
5845;SDS011;2949;50.778;7.094;2023-02-15T12:52:41;16.43;;;10.03;;
5845;SDS011;2949;50.778;7.094;2023-02-15T12:55:18;22.33;;;8.70;;
5845;SDS011;2949;50.778;7.094;2023-02-15T12:57:48;19.43;;;9.50;;
5845;SDS011;2949;50.778;7.094;2023-02-15T13:02:51;19.50;;;9.90;;
5845;SDS011;2949;50.778;7.094;2023-02-15T13:05:21;15.53;;;8.73;;
5845;SDS011;2949;50.778;7.094;2023-02-15T13:07:56;17.50;;;10.80;;
5845;SDS011;2949;50.778;7.094;2023-02-15T13:10:28;16.00;;;9.70;;
5845;SDS011;2949;50.778;7.094;2023-02-15T13:13:02;18.80;;;8.80;;
5845;SDS011;2949;50.778;7.094;2023-02-15T13:15:36;19.20;;;9.23;;
5845;SDS011;2949;50.778;7.094;2023-02-15T13:18:05;15.70;;;8.83;;
5845;SDS011;2949;50.778;7.094;2023-02-15T13:21:45;15.57;;;8.17;;
5845;SDS011;2949;50.778;7.094;2023-02-15T13:23:55;16.50;;;8.50;;
5845;SDS011;2949;50.778;7.094;2023-02-15T13:26:25;15.07;;;8.33;;
5845;SDS011;2949;50.778;7.094;2023-02-15T13:28:54;15.33;;;8.47;;
5845;SDS011;2949;50.778;7.094;2023-02-15T13:31:24;12.90;;;9.17;;
5845;SDS011;2949;50.778;7.094;2023-02-15T13:34:12;18.50;;;9.10;;
5845;SDS011;2949;50.778;7.094;2023-02-15T13:42:10;23.10;;;10.30;;
5845;SDS011;2949;50.778;7.094;2023-02-15T13:44:55;14.73;;;9.10;;
5845;SDS011;2949;50.778;7.094;2023-02-15T13:50:29;14.20;;;7.77;;
5845;SDS011;2949;50.778;7.094;2023-02-15T13:56:18;16.33;;;8.53;;
5845;SDS011;2949;50.778;7.094;2023-02-15T13:59:00;16.87;;;9.43;;
5845;SDS011;2949;50.778;7.094;2023-02-15T14:04:15;16.33;;;9.27;;
5845;SDS011;2949;50.778;7.094;2023-02-15T14:12:38;13.67;;;9.17;;
5845;SDS011;2949;50.778;7.094;2023-02-15T14:15:32;17.53;;;9.60;;
5845;SDS011;2949;50.778;7.094;2023-02-15T14:18:30;14.33;;;7.63;;
5845;SDS011;2949;50.778;7.094;2023-02-15T14:29:01;12.33;;;8.20;;
5845;SDS011;2949;50.778;7.094;2023-02-15T14:31:54;18.67;;;9.17;;
5845;SDS011;2949;50.778;7.094;2023-02-15T14:34:32;14.13;;;8.40;;
5845;SDS011;2949;50.778;7.094;2023-02-15T14:37:11;15.27;;;8.63;;
5845;SDS011;2949;50.778;7.094;2023-02-15T14:39:51;18.60;;;8.50;;
5845;SDS011;2949;50.778;7.094;2023-02-15T14:47:55;18.60;;;9.00;;
5845;SDS011;2949;50.778;7.094;2023-02-15T14:58:38;19.53;;;9.30;;
5845;SDS011;2949;50.778;7.094;2023-02-15T15:01:32;16.30;;;9.70;;
5845;SDS011;2949;50.778;7.094;2023-02-15T15:04:06;15.57;;;8.97;;
5845;SDS011;2949;50.778;7.094;2023-02-15T15:06:37;14.97;;;8.70;;
5845;SDS011;2949;50.778;7.094;2023-02-15T15:09:10;17.20;;;8.63;;
5845;SDS011;2949;50.778;7.094;2023-02-15T15:11:46;17.37;;;9.60;;
5845;SDS011;2949;50.778;7.094;2023-02-15T15:14:58;21.57;;;9.90;;
5845;SDS011;2949;50.778;7.094;2023-02-15T15:17:00;16.87;;;9.47;;
5845;SDS011;2949;50.778;7.094;2023-02-15T15:22:23;20.97;;;8.70;;
5845;SDS011;2949;50.778;7.094;2023-02-15T15:24:54;16.73;;;9.20;;
5845;SDS011;2949;50.778;7.094;2023-02-15T15:32:48;17.53;;;8.50;;
5845;SDS011;2949;50.778;7.094;2023-02-15T15:41:06;15.93;;;9.37;;
5845;SDS011;2949;50.778;7.094;2023-02-15T15:46:40;16.40;;;8.17;;
5845;SDS011;2949;50.778;7.094;2023-02-15T15:49:34;21.73;;;9.33;;
5845;SDS011;2949;50.778;7.094;2023-02-15T15:52:23;16.30;;;7.93;;
5845;SDS011;2949;50.778;7.094;2023-02-15T15:54:51;18.97;;;8.73;;
5845;SDS011;2949;50.778;7.094;2023-02-15T15:59:53;18.30;;;9.77;;
5845;SDS011;2949;50.778;7.094;2023-02-15T16:02:19;19.73;;;9.13;;
5845;SDS011;2949;50.778;7.094;2023-02-15T16:04:45;16.13;;;9.37;;
5845;SDS011;2949;50.778;7.094;2023-02-15T16:09:41;15.23;;;9.00;;
5845;SDS011;2949;50.778;7.094;2023-02-15T16:12:17;16.73;;;9.17;;
5845;SDS011;2949;50.778;7.094;2023-02-15T16:14:44;15.27;;;8.10;;
5845;SDS011;2949;50.778;7.094;2023-02-15T16:17:14;15.30;;;8.50;;
5845;SDS011;2949;50.778;7.094;2023-02-15T16:19:45;20.70;;;9.23;;
5845;SDS011;2949;50.778;7.094;2023-02-15T16:22:13;16.27;;;9.57;;
5845;SDS011;2949;50.778;7.094;2023-02-15T16:27:37;22.17;;;10.67;;
5845;SDS011;2949;50.778;7.094;2023-02-15T16:35:35;18.93;;;10.13;;
5845;SDS011;2949;50.778;7.094;2023-02-15T16:38:03;18.50;;;10.33;;
5845;SDS011;2949;50.778;7.094;2023-02-15T16:40:45;19.80;;;11.27;;
5845;SDS011;2949;50.778;7.094;2023-02-15T16:43:36;16.53;;;10.40;;
5845;SDS011;2949;50.778;7.094;2023-02-15T16:46:05;18.90;;;10.17;;
5845;SDS011;2949;50.778;7.094;2023-02-15T16:48:35;19.03;;;10.53;;
5845;SDS011;2949;50.778;7.094;2023-02-15T16:51:05;24.47;;;11.10;;
5845;SDS011;2949;50.778;7.094;2023-02-15T16:53:32;16.37;;;9.80;;
5845;SDS011;2949;50.778;7.094;2023-02-15T16:56:01;18.53;;;10.60;;
5845;SDS011;2949;50.778;7.094;2023-02-15T17:01:14;22.03;;;10.67;;
5845;SDS011;2949;50.778;7.094;2023-02-15T17:03:40;20.70;;;11.43;;
5845;SDS011;2949;50.778;7.094;2023-02-15T17:09:05;17.80;;;10.53;;
5845;SDS011;2949;50.778;7.094;2023-02-15T17:11:42;19.77;;;11.00;;
5845;SDS011;2949;50.778;7.094;2023-02-15T17:16:53;20.73;;;10.90;;
5845;SDS011;2949;50.778;7.094;2023-02-15T17:19:24;22.20;;;11.00;;
5845;SDS011;2949;50.778;7.094;2023-02-15T17:21:54;22.33;;;12.17;;
5845;SDS011;2949;50.778;7.094;2023-02-15T17:24:24;23.90;;;11.77;;
5845;SDS011;2949;50.778;7.094;2023-02-15T17:27:16;22.60;;;11.60;;
5845;SDS011;2949;50.778;7.094;2023-02-15T17:29:48;21.17;;;10.97;;
5845;SDS011;2949;50.778;7.094;2023-02-15T17:32:20;17.67;;;10.03;;
5845;SDS011;2949;50.778;7.094;2023-02-15T17:34:49;26.30;;;11.10;;
5845;SDS011;2949;50.778;7.094;2023-02-15T17:37:24;21.63;;;11.53;;
5845;SDS011;2949;50.778;7.094;2023-02-15T17:39:56;19.83;;;12.00;;
5845;SDS011;2949;50.778;7.094;2023-02-15T17:42:22;18.83;;;12.13;;
5845;SDS011;2949;50.778;7.094;2023-02-15T17:44:48;20.40;;;10.73;;
5845;SDS011;2949;50.778;7.094;2023-02-15T17:47:14;21.87;;;11.93;;
5845;SDS011;2949;50.778;7.094;2023-02-15T17:49:42;25.87;;;13.13;;
5845;SDS011;2949;50.778;7.094;2023-02-15T17:52:12;25.07;;;12.20;;
5845;SDS011;2949;50.778;7.094;2023-02-15T17:54:41;24.00;;;12.80;;
5845;SDS011;2949;50.778;7.094;2023-02-15T17:57:25;26.10;;;12.20;;
5845;SDS011;2949;50.778;7.094;2023-02-15T17:59:52;21.83;;;12.37;;
5845;SDS011;2949;50.778;7.094;2023-02-15T18:02:36;24.83;;;12.30;;
5845;SDS011;2949;50.778;7.094;2023-02-15T18:05:21;21.53;;;12.10;;
5845;SDS011;2949;50.778;7.094;2023-02-15T18:08:11;20.80;;;11.37;;